sensor_id;sensor_type;location;lat;lon;timestamp;P1;durP1;ratioP1;P2;durP2;ratioP2
40945;SDS011;55635;50.264;11.918;2023-12-22T00:01:54;6.53;;;1.20;;
40945;SDS011;55635;50.264;11.918;2023-12-22T00:04:35;8.48;;;1.40;;
40945;SDS011;55635;50.264;11.918;2023-12-22T00:07:17;11.77;;;2.00;;
40945;SDS011;55635;50.264;11.918;2023-12-22T00:10:00;7.82;;;1.65;;
40945;SDS011;55635;50.264;11.918;2023-12-22T00:12:41;8.43;;;1.52;;
40945;SDS011;55635;50.264;11.918;2023-12-22T00:15:22;18.13;;;2.28;;
40945;SDS011;55635;50.264;11.918;2023-12-22T00:18:03;12.20;;;2.70;;
40945;SDS011;55635;50.264;11.918;2023-12-22T00:20:44;9.77;;;1.17;;
40945;SDS011;55635;50.264;11.918;2023-12-22T00:23:26;15.95;;;3.25;;
40945;SDS011;55635;50.264;11.918;2023-12-22T00:26:07;12.75;;;2.10;;
40945;SDS011;55635;50.264;11.918;2023-12-22T00:28:48;14.88;;;2.38;;
40945;SDS011;55635;50.264;11.918;2023-12-22T00:31:29;15.00;;;1.90;;
40945;SDS011;55635;50.264;11.918;2023-12-22T00:34:10;17.33;;;2.65;;
40945;SDS011;55635;50.264;11.918;2023-12-22T00:36:51;12.48;;;1.90;;
40945;SDS011;55635;50.264;11.918;2023-12-22T00:39:32;21.05;;;2.65;;
40945;SDS011;55635;50.264;11.918;2023-12-22T00:42:13;14.93;;;2.03;;
40945;SDS011;55635;50.264;11.918;2023-12-22T00:44:54;15.57;;;1.85;;
40945;SDS011;55635;50.264;11.918;2023-12-22T00:47:35;12.25;;;1.98;;
40945;SDS011;55635;50.264;11.918;2023-12-22T00:50:16;12.60;;;2.30;;
40945;SDS011;55635;50.264;11.918;2023-12-22T00:52:57;10.02;;;2.22;;
40945;SDS011;55635;50.264;11.918;2023-12-22T00:55:38;12.35;;;1.90;;
40945;SDS011;55635;50.264;11.918;2023-12-22T00:58:20;15.98;;;3.28;;
40945;SDS011;55635;50.264;11.918;2023-12-22T01:01:01;16.33;;;2.08;;
40945;SDS011;55635;50.264;11.918;2023-12-22T01:03:42;14.93;;;2.00;;
40945;SDS011;55635;50.264;11.918;2023-12-22T01:06:23;15.27;;;2.17;;
40945;SDS011;55635;50.264;11.918;2023-12-22T01:09:04;24.60;;;2.95;;
40945;SDS011;55635;50.264;11.918;2023-12-22T01:11:45;23.10;;;2.60;;
40945;SDS011;55635;50.264;11.918;2023-12-22T01:14:27;10.50;;;2.13;;
40945;SDS011;55635;50.264;11.918;2023-12-22T01:17:08;15.88;;;2.40;;
40945;SDS011;55635;50.264;11.918;2023-12-22T01:19:50;12.38;;;1.80;;
40945;SDS011;55635;50.264;11.918;2023-12-22T01:22:31;10.10;;;1.88;;
40945;SDS011;55635;50.264;11.918;2023-12-22T01:25:13;9.50;;;1.60;;
40945;SDS011;55635;50.264;11.918;2023-12-22T01:27:55;10.27;;;2.20;;
40945;SDS011;55635;50.264;11.918;2023-12-22T01:30:36;8.25;;;1.83;;
40945;SDS011;55635;50.264;11.918;2023-12-22T01:33:17;11.52;;;2.17;;
40945;SDS011;55635;50.264;11.918;2023-12-22T01:35:58;14.38;;;3.20;;
40945;SDS011;55635;50.264;11.918;2023-12-22T01:38:39;7.53;;;2.78;;
40945;SDS011;55635;50.264;11.918;2023-12-22T01:41:21;12.85;;;2.60;;
40945;SDS011;55635;50.264;11.918;2023-12-22T01:44:01;10.70;;;1.98;;
40945;SDS011;55635;50.264;11.918;2023-12-22T01:46:43;9.60;;;1.95;;
40945;SDS011;55635;50.264;11.918;2023-12-22T01:49:24;15.98;;;2.53;;
40945;SDS011;55635;50.264;11.918;2023-12-22T01:52:06;12.57;;;2.88;;
40945;SDS011;55635;50.264;11.918;2023-12-22T01:54:47;9.77;;;2.35;;
40945;SDS011;55635;50.264;11.918;2023-12-22T01:57:30;11.80;;;1.88;;
40945;SDS011;55635;50.264;11.918;2023-12-22T02:00:12;14.55;;;2.20;;
40945;SDS011;55635;50.264;11.918;2023-12-22T02:02:54;14.35;;;2.00;;
40945;SDS011;55635;50.264;11.918;2023-12-22T02:05:35;17.00;;;2.47;;
40945;SDS011;55635;50.264;11.918;2023-12-22T02:08:19;17.15;;;2.53;;
40945;SDS011;55635;50.264;11.918;2023-12-22T02:11:03;12.60;;;2.65;;
40945;SDS011;55635;50.264;11.918;2023-12-22T02:13:44;21.80;;;3.00;;
40945;SDS011;55635;50.264;11.918;2023-12-22T02:16:28;18.13;;;3.00;;
40945;SDS011;55635;50.264;11.918;2023-12-22T02:19:34;13.15;;;2.60;;
40945;SDS011;55635;50.264;11.918;2023-12-22T02:22:18;16.90;;;2.35;;
40945;SDS011;55635;50.264;11.918;2023-12-22T02:24:59;15.52;;;2.08;;
40945;SDS011;55635;50.264;11.918;2023-12-22T02:27:43;16.60;;;2.10;;
40945;SDS011;55635;50.264;11.918;2023-12-22T02:33:13;10.98;;;2.53;;
40945;SDS011;55635;50.264;11.918;2023-12-22T02:36:01;14.48;;;2.63;;
40945;SDS011;55635;50.264;11.918;2023-12-22T02:38:44;15.38;;;2.45;;
40945;SDS011;55635;50.264;11.918;2023-12-22T02:41:28;12.50;;;2.65;;
40945;SDS011;55635;50.264;11.918;2023-12-22T02:44:10;18.08;;;2.60;;
40945;SDS011;55635;50.264;11.918;2023-12-22T02:46:51;12.10;;;1.83;;
40945;SDS011;55635;50.264;11.918;2023-12-22T02:49:32;13.48;;;2.35;;
40945;SDS011;55635;50.264;11.918;2023-12-22T02:52:36;6.65;;;1.73;;
40945;SDS011;55635;50.264;11.918;2023-12-22T02:55:18;15.07;;;2.40;;
40945;SDS011;55635;50.264;11.918;2023-12-22T02:57:59;8.60;;;1.73;;
40945;SDS011;55635;50.264;11.918;2023-12-22T03:00:40;12.65;;;1.77;;
40945;SDS011;55635;50.264;11.918;2023-12-22T03:03:21;4.75;;;1.20;;
40945;SDS011;55635;50.264;11.918;2023-12-22T03:06:03;6.97;;;1.38;;
40945;SDS011;55635;50.264;11.918;2023-12-22T03:08:44;5.60;;;1.60;;
40945;SDS011;55635;50.264;11.918;2023-12-22T03:11:25;6.38;;;1.83;;
40945;SDS011;55635;50.264;11.918;2023-12-22T03:14:06;8.02;;;1.55;;
40945;SDS011;55635;50.264;11.918;2023-12-22T03:16:48;9.43;;;2.30;;
40945;SDS011;55635;50.264;11.918;2023-12-22T03:19:29;7.30;;;1.70;;
40945;SDS011;55635;50.264;11.918;2023-12-22T03:22:11;14.30;;;1.70;;
40945;SDS011;55635;50.264;11.918;2023-12-22T03:24:53;9.82;;;2.17;;
40945;SDS011;55635;50.264;11.918;2023-12-22T03:27:33;11.05;;;2.00;;
40945;SDS011;55635;50.264;11.918;2023-12-22T03:30:15;7.38;;;1.42;;
40945;SDS011;55635;50.264;11.918;2023-12-22T03:32:55;13.93;;;2.00;;
40945;SDS011;55635;50.264;11.918;2023-12-22T03:35:37;4.95;;;1.25;;
40945;SDS011;55635;50.264;11.918;2023-12-22T03:38:17;9.27;;;1.90;;
40945;SDS011;55635;50.264;11.918;2023-12-22T03:40:59;4.65;;;1.38;;
40945;SDS011;55635;50.264;11.918;2023-12-22T03:43:40;8.18;;;2.05;;
40945;SDS011;55635;50.264;11.918;2023-12-22T03:46:21;9.38;;;1.85;;
40945;SDS011;55635;50.264;11.918;2023-12-22T03:49:02;6.60;;;1.40;;
40945;SDS011;55635;50.264;11.918;2023-12-22T03:51:43;7.40;;;1.50;;
40945;SDS011;55635;50.264;11.918;2023-12-22T03:54:24;8.73;;;1.40;;
40945;SDS011;55635;50.264;11.918;2023-12-22T03:57:05;6.60;;;1.02;;
40945;SDS011;55635;50.264;11.918;2023-12-22T03:59:46;9.40;;;1.67;;
40945;SDS011;55635;50.264;11.918;2023-12-22T04:02:27;4.68;;;1.20;;
40945;SDS011;55635;50.264;11.918;2023-12-22T04:05:10;4.30;;;1.40;;
40945;SDS011;55635;50.264;11.918;2023-12-22T04:07:52;6.32;;;1.02;;
40945;SDS011;55635;50.264;11.918;2023-12-22T04:10:33;5.07;;;1.10;;
40945;SDS011;55635;50.264;11.918;2023-12-22T04:13:14;4.50;;;1.23;;
40945;SDS011;55635;50.264;11.918;2023-12-22T04:15:55;8.27;;;1.65;;
40945;SDS011;55635;50.264;11.918;2023-12-22T04:18:37;8.18;;;0.95;;
40945;SDS011;55635;50.264;11.918;2023-12-22T04:21:18;7.13;;;1.23;;
40945;SDS011;55635;50.264;11.918;2023-12-22T04:23:59;6.55;;;1.20;;
40945;SDS011;55635;50.264;11.918;2023-12-22T04:26:40;7.82;;;1.05;;
40945;SDS011;55635;50.264;11.918;2023-12-22T04:29:22;11.38;;;1.58;;
40945;SDS011;55635;50.264;11.918;2023-12-22T04:32:03;7.50;;;1.35;;
40945;SDS011;55635;50.264;11.918;2023-12-22T04:34:44;6.70;;;1.15;;
40945;SDS011;55635;50.264;11.918;2023-12-22T04:37:26;7.25;;;1.33;;
40945;SDS011;55635;50.264;11.918;2023-12-22T04:40:07;10.15;;;1.05;;
40945;SDS011;55635;50.264;11.918;2023-12-22T04:42:48;2.95;;;1.05;;
40945;SDS011;55635;50.264;11.918;2023-12-22T04:45:30;5.95;;;1.33;;
40945;SDS011;55635;50.264;11.918;2023-12-22T04:48:11;10.45;;;1.88;;
40945;SDS011;55635;50.264;11.918;2023-12-22T04:50:52;7.90;;;1.70;;
40945;SDS011;55635;50.264;11.918;2023-12-22T04:53:33;7.18;;;1.00;;
40945;SDS011;55635;50.264;11.918;2023-12-22T04:56:14;5.57;;;1.15;;
40945;SDS011;55635;50.264;11.918;2023-12-22T04:58:55;7.53;;;1.38;;
40945;SDS011;55635;50.264;11.918;2023-12-22T05:01:36;5.88;;;1.10;;
40945;SDS011;55635;50.264;11.918;2023-12-22T05:04:18;7.03;;;0.93;;
40945;SDS011;55635;50.264;11.918;2023-12-22T05:06:59;10.57;;;1.17;;
40945;SDS011;55635;50.264;11.918;2023-12-22T05:09:41;5.63;;;1.63;;
40945;SDS011;55635;50.264;11.918;2023-12-22T05:12:22;7.47;;;1.00;;
40945;SDS011;55635;50.264;11.918;2023-12-22T05:15:03;5.20;;;1.10;;
40945;SDS011;55635;50.264;11.918;2023-12-22T05:17:46;5.78;;;1.55;;
40945;SDS011;55635;50.264;11.918;2023-12-22T05:20:27;11.32;;;1.40;;
40945;SDS011;55635;50.264;11.918;2023-12-22T05:23:08;3.72;;;1.60;;
40945;SDS011;55635;50.264;11.918;2023-12-22T05:25:49;6.20;;;1.23;;
40945;SDS011;55635;50.264;11.918;2023-12-22T05:28:30;5.18;;;1.40;;
40945;SDS011;55635;50.264;11.918;2023-12-22T05:31:12;5.95;;;1.02;;
40945;SDS011;55635;50.264;11.918;2023-12-22T05:33:53;4.30;;;1.08;;
40945;SDS011;55635;50.264;11.918;2023-12-22T05:36:35;11.63;;;1.55;;
40945;SDS011;55635;50.264;11.918;2023-12-22T05:39:16;5.90;;;1.45;;
40945;SDS011;55635;50.264;11.918;2023-12-22T05:41:57;5.65;;;0.98;;
40945;SDS011;55635;50.264;11.918;2023-12-22T05:44:38;5.72;;;1.27;;
40945;SDS011;55635;50.264;11.918;2023-12-22T05:47:19;4.18;;;1.08;;
40945;SDS011;55635;50.264;11.918;2023-12-22T05:50:00;12.05;;;1.33;;
40945;SDS011;55635;50.264;11.918;2023-12-22T05:52:42;8.20;;;1.00;;
40945;SDS011;55635;50.264;11.918;2023-12-22T05:55:26;5.65;;;1.00;;
40945;SDS011;55635;50.264;11.918;2023-12-22T05:58:07;7.10;;;1.30;;
40945;SDS011;55635;50.264;11.918;2023-12-22T06:00:48;10.55;;;1.88;;
40945;SDS011;55635;50.264;11.918;2023-12-22T06:03:29;9.23;;;1.00;;
40945;SDS011;55635;50.264;11.918;2023-12-22T06:06:11;8.55;;;0.90;;
40945;SDS011;55635;50.264;11.918;2023-12-22T06:08:53;13.63;;;1.50;;
40945;SDS011;55635;50.264;11.918;2023-12-22T06:11:34;6.13;;;1.63;;
40945;SDS011;55635;50.264;11.918;2023-12-22T06:14:15;5.40;;;0.88;;
40945;SDS011;55635;50.264;11.918;2023-12-22T06:16:56;7.93;;;1.13;;
40945;SDS011;55635;50.264;11.918;2023-12-22T06:19:38;10.35;;;0.88;;
40945;SDS011;55635;50.264;11.918;2023-12-22T06:22:19;6.00;;;1.00;;
40945;SDS011;55635;50.264;11.918;2023-12-22T06:25:01;5.88;;;1.20;;
40945;SDS011;55635;50.264;11.918;2023-12-22T06:27:47;5.35;;;1.00;;
40945;SDS011;55635;50.264;11.918;2023-12-22T06:30:28;7.82;;;1.08;;
40945;SDS011;55635;50.264;11.918;2023-12-22T06:33:10;8.55;;;1.23;;
40945;SDS011;55635;50.264;11.918;2023-12-22T06:35:51;9.55;;;1.80;;
40945;SDS011;55635;50.264;11.918;2023-12-22T06:38:33;6.97;;;1.27;;
40945;SDS011;55635;50.264;11.918;2023-12-22T06:41:21;8.52;;;1.23;;
40945;SDS011;55635;50.264;11.918;2023-12-22T06:44:03;12.90;;;1.27;;
40945;SDS011;55635;50.264;11.918;2023-12-22T06:46:44;6.32;;;1.23;;
40945;SDS011;55635;50.264;11.918;2023-12-22T06:49:25;6.07;;;0.85;;
40945;SDS011;55635;50.264;11.918;2023-12-22T06:52:06;7.30;;;1.30;;
40945;SDS011;55635;50.264;11.918;2023-12-22T06:54:47;6.53;;;0.95;;
40945;SDS011;55635;50.264;11.918;2023-12-22T06:57:28;8.68;;;1.23;;
40945;SDS011;55635;50.264;11.918;2023-12-22T07:00:10;7.78;;;1.00;;
40945;SDS011;55635;50.264;11.918;2023-12-22T07:02:51;3.75;;;0.70;;
40945;SDS011;55635;50.264;11.918;2023-12-22T07:05:32;7.60;;;1.17;;
40945;SDS011;55635;50.264;11.918;2023-12-22T07:08:16;3.72;;;0.90;;
40945;SDS011;55635;50.264;11.918;2023-12-22T07:10:57;7.25;;;0.80;;
40945;SDS011;55635;50.264;11.918;2023-12-22T07:13:38;7.57;;;1.10;;
40945;SDS011;55635;50.264;11.918;2023-12-22T07:19:00;4.68;;;1.20;;
40945;SDS011;55635;50.264;11.918;2023-12-22T07:21:41;2.97;;;0.85;;
40945;SDS011;55635;50.264;11.918;2023-12-22T07:24:23;7.05;;;0.88;;
40945;SDS011;55635;50.264;11.918;2023-12-22T07:27:04;2.55;;;0.40;;
40945;SDS011;55635;50.264;11.918;2023-12-22T07:29:45;3.38;;;0.40;;
40945;SDS011;55635;50.264;11.918;2023-12-22T07:32:26;4.88;;;0.52;;
40945;SDS011;55635;50.264;11.918;2023-12-22T07:35:08;2.15;;;0.40;;
40945;SDS011;55635;50.264;11.918;2023-12-22T07:37:49;2.67;;;0.50;;
40945;SDS011;55635;50.264;11.918;2023-12-22T07:40:30;4.85;;;0.80;;
40945;SDS011;55635;50.264;11.918;2023-12-22T07:43:12;4.03;;;0.50;;
40945;SDS011;55635;50.264;11.918;2023-12-22T07:45:54;0.90;;;0.35;;
40945;SDS011;55635;50.264;11.918;2023-12-22T07:48:35;1.60;;;0.47;;
40945;SDS011;55635;50.264;11.918;2023-12-22T07:51:16;0.60;;;0.25;;
40945;SDS011;55635;50.264;11.918;2023-12-22T07:53:58;1.42;;;0.40;;
40945;SDS011;55635;50.264;11.918;2023-12-22T07:56:39;3.58;;;0.60;;
40945;SDS011;55635;50.264;11.918;2023-12-22T07:59:20;2.40;;;0.75;;
40945;SDS011;55635;50.264;11.918;2023-12-22T08:02:01;1.42;;;0.40;;
40945;SDS011;55635;50.264;11.918;2023-12-22T08:04:43;4.13;;;0.77;;
40945;SDS011;55635;50.264;11.918;2023-12-22T08:07:24;1.48;;;0.50;;
40945;SDS011;55635;50.264;11.918;2023-12-22T08:10:05;3.38;;;0.70;;
40945;SDS011;55635;50.264;11.918;2023-12-22T08:12:46;3.42;;;0.73;;
40945;SDS011;55635;50.264;11.918;2023-12-22T08:15:28;5.82;;;0.70;;
40945;SDS011;55635;50.264;11.918;2023-12-22T08:18:09;4.28;;;0.60;;
40945;SDS011;55635;50.264;11.918;2023-12-22T08:20:51;4.03;;;0.60;;
40945;SDS011;55635;50.264;11.918;2023-12-22T08:23:32;3.60;;;0.65;;
40945;SDS011;55635;50.264;11.918;2023-12-22T08:26:13;3.45;;;0.70;;
40945;SDS011;55635;50.264;11.918;2023-12-22T08:28:57;2.05;;;0.47;;
40945;SDS011;55635;50.264;11.918;2023-12-22T08:31:38;4.93;;;0.75;;
40945;SDS011;55635;50.264;11.918;2023-12-22T08:34:19;3.45;;;0.45;;
40945;SDS011;55635;50.264;11.918;2023-12-22T08:37:00;2.45;;;0.40;;
40945;SDS011;55635;50.264;11.918;2023-12-22T08:39:41;1.75;;;0.50;;
40945;SDS011;55635;50.264;11.918;2023-12-22T08:42:23;2.22;;;0.95;;
40945;SDS011;55635;50.264;11.918;2023-12-22T08:45:08;2.47;;;0.57;;
40945;SDS011;55635;50.264;11.918;2023-12-22T08:47:49;3.65;;;0.40;;
40945;SDS011;55635;50.264;11.918;2023-12-22T08:50:30;2.30;;;0.47;;
40945;SDS011;55635;50.264;11.918;2023-12-22T08:53:11;2.78;;;0.40;;
40945;SDS011;55635;50.264;11.918;2023-12-22T08:55:52;2.75;;;0.50;;
40945;SDS011;55635;50.264;11.918;2023-12-22T08:58:34;2.30;;;0.52;;
40945;SDS011;55635;50.264;11.918;2023-12-22T09:01:16;2.90;;;0.63;;
40945;SDS011;55635;50.264;11.918;2023-12-22T09:03:57;4.88;;;0.85;;
40945;SDS011;55635;50.264;11.918;2023-12-22T09:06:39;6.15;;;0.70;;
40945;SDS011;55635;50.264;11.918;2023-12-22T09:09:20;1.23;;;0.47;;
40945;SDS011;55635;50.264;11.918;2023-12-22T09:12:02;3.17;;;0.40;;
40945;SDS011;55635;50.264;11.918;2023-12-22T09:14:44;4.03;;;0.70;;
40945;SDS011;55635;50.264;11.918;2023-12-22T09:17:26;1.50;;;0.50;;
40945;SDS011;55635;50.264;11.918;2023-12-22T09:20:08;3.30;;;0.60;;
40945;SDS011;55635;50.264;11.918;2023-12-22T09:22:51;3.00;;;0.30;;
40945;SDS011;55635;50.264;11.918;2023-12-22T09:25:32;1.48;;;0.38;;
40945;SDS011;55635;50.264;11.918;2023-12-22T09:28:13;6.13;;;0.70;;
40945;SDS011;55635;50.264;11.918;2023-12-22T09:30:55;3.45;;;0.50;;
40945;SDS011;55635;50.264;11.918;2023-12-22T09:33:36;3.70;;;0.40;;
40945;SDS011;55635;50.264;11.918;2023-12-22T09:36:17;4.65;;;0.60;;
40945;SDS011;55635;50.264;11.918;2023-12-22T09:38:58;2.03;;;0.47;;
40945;SDS011;55635;50.264;11.918;2023-12-22T09:41:39;2.70;;;0.40;;
40945;SDS011;55635;50.264;11.918;2023-12-22T09:44:21;3.70;;;0.70;;
40945;SDS011;55635;50.264;11.918;2023-12-22T09:47:03;3.50;;;1.00;;
40945;SDS011;55635;50.264;11.918;2023-12-22T09:49:46;2.50;;;0.65;;
40945;SDS011;55635;50.264;11.918;2023-12-22T09:52:28;3.45;;;0.70;;
40945;SDS011;55635;50.264;11.918;2023-12-22T09:55:12;3.97;;;0.80;;
40945;SDS011;55635;50.264;11.918;2023-12-22T09:57:54;1.65;;;0.50;;
40945;SDS011;55635;50.264;11.918;2023-12-22T10:00:36;4.70;;;0.50;;
40945;SDS011;55635;50.264;11.918;2023-12-22T10:03:18;2.60;;;0.47;;
40945;SDS011;55635;50.264;11.918;2023-12-22T10:06:00;3.67;;;0.60;;
40945;SDS011;55635;50.264;11.918;2023-12-22T10:08:41;1.67;;;0.65;;
40945;SDS011;55635;50.264;11.918;2023-12-22T10:11:23;3.75;;;0.95;;
40945;SDS011;55635;50.264;11.918;2023-12-22T10:14:07;0.75;;;0.40;;
40945;SDS011;55635;50.264;11.918;2023-12-22T10:16:49;1.35;;;0.50;;
40945;SDS011;55635;50.264;11.918;2023-12-22T10:19:34;5.07;;;1.98;;
40945;SDS011;55635;50.264;11.918;2023-12-22T10:22:15;3.53;;;0.70;;
40945;SDS011;55635;50.264;11.918;2023-12-22T10:24:55;3.13;;;0.60;;
40945;SDS011;55635;50.264;11.918;2023-12-22T10:27:37;3.83;;;0.70;;
40945;SDS011;55635;50.264;11.918;2023-12-22T10:30:18;7.70;;;1.00;;
40945;SDS011;55635;50.264;11.918;2023-12-22T10:33:00;2.88;;;0.57;;
40945;SDS011;55635;50.264;11.918;2023-12-22T10:35:44;6.55;;;0.70;;
40945;SDS011;55635;50.264;11.918;2023-12-22T10:38:26;4.53;;;0.95;;
40945;SDS011;55635;50.264;11.918;2023-12-22T10:41:14;8.68;;;1.02;;
40945;SDS011;55635;50.264;11.918;2023-12-22T10:43:55;3.53;;;1.00;;
40945;SDS011;55635;50.264;11.918;2023-12-22T10:46:36;2.28;;;0.90;;
40945;SDS011;55635;50.264;11.918;2023-12-22T10:49:18;3.83;;;0.80;;
40945;SDS011;55635;50.264;11.918;2023-12-22T10:51:59;6.13;;;1.02;;
40945;SDS011;55635;50.264;11.918;2023-12-22T10:54:40;7.15;;;0.75;;
40945;SDS011;55635;50.264;11.918;2023-12-22T10:57:21;4.10;;;0.45;;
40945;SDS011;55635;50.264;11.918;2023-12-22T11:00:03;4.65;;;1.08;;
40945;SDS011;55635;50.264;11.918;2023-12-22T11:02:47;3.13;;;0.73;;
40945;SDS011;55635;50.264;11.918;2023-12-22T11:05:29;1.73;;;0.63;;
40945;SDS011;55635;50.264;11.918;2023-12-22T11:08:13;6.10;;;1.88;;
40945;SDS011;55635;50.264;11.918;2023-12-22T11:10:57;4.00;;;0.70;;
40945;SDS011;55635;50.264;11.918;2023-12-22T11:13:41;3.38;;;0.57;;
40945;SDS011;55635;50.264;11.918;2023-12-22T11:16:23;3.50;;;1.02;;
40945;SDS011;55635;50.264;11.918;2023-12-22T11:19:05;1.80;;;0.55;;
40945;SDS011;55635;50.264;11.918;2023-12-22T11:21:48;5.43;;;1.00;;
40945;SDS011;55635;50.264;11.918;2023-12-22T11:24:32;5.57;;;1.00;;
40945;SDS011;55635;50.264;11.918;2023-12-22T11:27:19;4.47;;;1.00;;
40945;SDS011;55635;50.264;11.918;2023-12-22T11:30:01;7.25;;;1.23;;
40945;SDS011;55635;50.264;11.918;2023-12-22T11:32:42;3.38;;;0.43;;
40945;SDS011;55635;50.264;11.918;2023-12-22T11:35:25;1.52;;;0.57;;
40945;SDS011;55635;50.264;11.918;2023-12-22T11:38:08;1.90;;;0.75;;
40945;SDS011;55635;50.264;11.918;2023-12-22T11:40:51;4.03;;;0.70;;
40945;SDS011;55635;50.264;11.918;2023-12-22T11:43:33;2.17;;;0.85;;
40945;SDS011;55635;50.264;11.918;2023-12-22T11:46:16;7.18;;;0.80;;
40945;SDS011;55635;50.264;11.918;2023-12-22T11:48:58;3.03;;;0.52;;
40945;SDS011;55635;50.264;11.918;2023-12-22T11:51:39;1.67;;;0.50;;
40945;SDS011;55635;50.264;11.918;2023-12-22T11:57:36;3.80;;;0.60;;
40945;SDS011;55635;50.264;11.918;2023-12-22T12:03:05;1.90;;;0.30;;
40945;SDS011;55635;50.264;11.918;2023-12-22T12:05:47;1.73;;;0.50;;
40945;SDS011;55635;50.264;11.918;2023-12-22T12:08:29;2.45;;;0.38;;
40945;SDS011;55635;50.264;11.918;2023-12-22T12:11:10;0.70;;;0.10;;
40945;SDS011;55635;50.264;11.918;2023-12-22T12:13:52;0.52;;;0.20;;
40945;SDS011;55635;50.264;11.918;2023-12-22T12:16:34;0.57;;;0.30;;
40945;SDS011;55635;50.264;11.918;2023-12-22T12:19:18;2.67;;;0.28;;
40945;SDS011;55635;50.264;11.918;2023-12-22T12:22:00;0.28;;;0.10;;
40945;SDS011;55635;50.264;11.918;2023-12-22T12:24:41;0.17;;;0.17;;
40945;SDS011;55635;50.264;11.918;2023-12-22T12:27:23;0.57;;;0.10;;
40945;SDS011;55635;50.264;11.918;2023-12-22T12:30:10;1.42;;;0.40;;
40945;SDS011;55635;50.264;11.918;2023-12-22T12:32:55;4.15;;;0.65;;
40945;SDS011;55635;50.264;11.918;2023-12-22T12:36:00;0.10;;;0.00;;
40945;SDS011;55635;50.264;11.918;2023-12-22T12:38:55;1.30;;;0.17;;
40945;SDS011;55635;50.264;11.918;2023-12-22T12:41:48;0.20;;;0.10;;
40945;SDS011;55635;50.264;11.918;2023-12-22T12:44:34;0.13;;;0.10;;
40945;SDS011;55635;50.264;11.918;2023-12-22T12:47:15;1.00;;;0.10;;
40945;SDS011;55635;50.264;11.918;2023-12-22T12:49:57;0.73;;;0.20;;
40945;SDS011;55635;50.264;11.918;2023-12-22T12:52:41;0.93;;;0.63;;
40945;SDS011;55635;50.264;11.918;2023-12-22T12:55:23;1.55;;;0.95;;
40945;SDS011;55635;50.264;11.918;2023-12-22T12:58:05;0.35;;;0.15;;
40945;SDS011;55635;50.264;11.918;2023-12-22T13:00:46;0.60;;;0.20;;
40945;SDS011;55635;50.264;11.918;2023-12-22T13:03:28;0.30;;;0.30;;
40945;SDS011;55635;50.264;11.918;2023-12-22T13:06:09;0.75;;;0.43;;
40945;SDS011;55635;50.264;11.918;2023-12-22T13:08:50;0.50;;;0.20;;
40945;SDS011;55635;50.264;11.918;2023-12-22T13:11:32;0.20;;;0.20;;
40945;SDS011;55635;50.264;11.918;2023-12-22T13:14:23;0.28;;;0.25;;
40945;SDS011;55635;50.264;11.918;2023-12-22T13:17:07;0.60;;;0.40;;
40945;SDS011;55635;50.264;11.918;2023-12-22T13:19:50;1.00;;;0.20;;
40945;SDS011;55635;50.264;11.918;2023-12-22T13:22:31;1.67;;;0.50;;
40945;SDS011;55635;50.264;11.918;2023-12-22T13:25:12;0.30;;;0.20;;
40945;SDS011;55635;50.264;11.918;2023-12-22T13:27:53;2.30;;;0.47;;
40945;SDS011;55635;50.264;11.918;2023-12-22T13:30:36;0.40;;;0.32;;
40945;SDS011;55635;50.264;11.918;2023-12-22T13:33:20;0.75;;;0.32;;
40945;SDS011;55635;50.264;11.918;2023-12-22T13:36:01;1.08;;;0.90;;
40945;SDS011;55635;50.264;11.918;2023-12-22T13:38:46;1.30;;;0.73;;
40945;SDS011;55635;50.264;11.918;2023-12-22T13:41:28;1.10;;;0.90;;
40945;SDS011;55635;50.264;11.918;2023-12-22T13:44:09;3.33;;;1.90;;
40945;SDS011;55635;50.264;11.918;2023-12-22T13:46:50;0.40;;;0.40;;
40945;SDS011;55635;50.264;11.918;2023-12-22T13:49:33;0.20;;;0.20;;
40945;SDS011;55635;50.264;11.918;2023-12-22T13:52:32;0.10;;;0.10;;
40945;SDS011;55635;50.264;11.918;2023-12-22T13:55:15;0.10;;;0.10;;
40945;SDS011;55635;50.264;11.918;2023-12-22T13:58:00;2.63;;;0.20;;
40945;SDS011;55635;50.264;11.918;2023-12-22T14:00:41;0.98;;;0.20;;
40945;SDS011;55635;50.264;11.918;2023-12-22T14:03:25;1.85;;;0.20;;
40945;SDS011;55635;50.264;11.918;2023-12-22T14:06:06;1.23;;;0.22;;
40945;SDS011;55635;50.264;11.918;2023-12-22T14:08:49;0.32;;;0.20;;
40945;SDS011;55635;50.264;11.918;2023-12-22T14:11:30;0.10;;;0.10;;
40945;SDS011;55635;50.264;11.918;2023-12-22T14:14:11;1.05;;;0.20;;
40945;SDS011;55635;50.264;11.918;2023-12-22T14:16:52;1.02;;;0.20;;
40945;SDS011;55635;50.264;11.918;2023-12-22T14:19:33;1.10;;;0.30;;
40945;SDS011;55635;50.264;11.918;2023-12-22T14:22:15;0.40;;;0.20;;
40945;SDS011;55635;50.264;11.918;2023-12-22T14:24:57;0.22;;;0.08;;
40945;SDS011;55635;50.264;11.918;2023-12-22T14:27:38;1.98;;;0.10;;
40945;SDS011;55635;50.264;11.918;2023-12-22T14:30:19;0.35;;;0.20;;
40945;SDS011;55635;50.264;11.918;2023-12-22T14:33:00;0.13;;;0.08;;
40945;SDS011;55635;50.264;11.918;2023-12-22T14:35:42;0.38;;;0.38;;
40945;SDS011;55635;50.264;11.918;2023-12-22T14:38:22;0.20;;;0.20;;
40945;SDS011;55635;50.264;11.918;2023-12-22T14:41:04;0.98;;;0.20;;
40945;SDS011;55635;50.264;11.918;2023-12-22T14:43:46;0.30;;;0.17;;
40945;SDS011;55635;50.264;11.918;2023-12-22T14:46:27;0.40;;;0.40;;
40945;SDS011;55635;50.264;11.918;2023-12-22T14:49:09;0.10;;;0.10;;
40945;SDS011;55635;50.264;11.918;2023-12-22T14:51:50;0.30;;;0.20;;
40945;SDS011;55635;50.264;11.918;2023-12-22T14:54:34;0.60;;;0.20;;
40945;SDS011;55635;50.264;11.918;2023-12-22T14:57:15;0.95;;;0.22;;
40945;SDS011;55635;50.264;11.918;2023-12-22T14:59:58;0.30;;;0.20;;
40945;SDS011;55635;50.264;11.918;2023-12-22T15:02:40;0.30;;;0.17;;
40945;SDS011;55635;50.264;11.918;2023-12-22T15:05:21;1.17;;;0.15;;
40945;SDS011;55635;50.264;11.918;2023-12-22T15:08:02;1.13;;;0.20;;
40945;SDS011;55635;50.264;11.918;2023-12-22T15:10:47;0.20;;;0.20;;
40945;SDS011;55635;50.264;11.918;2023-12-22T15:13:28;2.30;;;1.30;;
40945;SDS011;55635;50.264;11.918;2023-12-22T15:16:09;2.05;;;0.30;;
40945;SDS011;55635;50.264;11.918;2023-12-22T15:18:50;0.40;;;0.30;;
40945;SDS011;55635;50.264;11.918;2023-12-22T15:21:31;0.55;;;0.20;;
40945;SDS011;55635;50.264;11.918;2023-12-22T15:24:13;0.68;;;0.40;;
40945;SDS011;55635;50.264;11.918;2023-12-22T15:26:54;0.30;;;0.30;;
40945;SDS011;55635;50.264;11.918;2023-12-22T15:29:35;0.68;;;0.30;;
40945;SDS011;55635;50.264;11.918;2023-12-22T15:32:17;1.80;;;0.30;;
40945;SDS011;55635;50.264;11.918;2023-12-22T15:34:58;0.98;;;0.30;;
40945;SDS011;55635;50.264;11.918;2023-12-22T15:37:39;0.65;;;0.30;;
40945;SDS011;55635;50.264;11.918;2023-12-22T15:40:21;1.25;;;0.30;;
40945;SDS011;55635;50.264;11.918;2023-12-22T15:43:02;0.63;;;0.40;;
40945;SDS011;55635;50.264;11.918;2023-12-22T15:45:44;0.90;;;0.40;;
40945;SDS011;55635;50.264;11.918;2023-12-22T15:48:25;0.57;;;0.30;;
40945;SDS011;55635;50.264;11.918;2023-12-22T15:51:10;0.40;;;0.30;;
40945;SDS011;55635;50.264;11.918;2023-12-22T15:53:53;1.40;;;0.40;;
40945;SDS011;55635;50.264;11.918;2023-12-22T15:56:34;0.95;;;0.20;;
40945;SDS011;55635;50.264;11.918;2023-12-22T15:59:15;1.00;;;0.30;;
40945;SDS011;55635;50.264;11.918;2023-12-22T16:01:56;0.80;;;0.55;;
40945;SDS011;55635;50.264;11.918;2023-12-22T16:04:37;0.20;;;0.10;;
40945;SDS011;55635;50.264;11.918;2023-12-22T16:07:18;0.43;;;0.43;;
40945;SDS011;55635;50.264;11.918;2023-12-22T16:09:59;0.20;;;0.20;;